sensor_id;sensor_type;location;lat;lon;timestamp;P1;durP1;ratioP1;P2;durP2;ratioP2
55065;SDS011;40964;42.114;24.220;2022-12-15T00:02:19;22.95;;;9.50;;
55065;SDS011;40964;42.114;24.220;2022-12-15T00:05:04;30.38;;;12.15;;
55065;SDS011;40964;42.114;24.220;2022-12-15T00:07:48;48.85;;;20.50;;
55065;SDS011;40964;42.114;24.220;2022-12-15T00:10:32;45.10;;;18.58;;
55065;SDS011;40964;42.114;24.220;2022-12-15T00:13:16;45.20;;;19.95;;
55065;SDS011;40964;42.114;24.220;2022-12-15T00:18:44;59.63;;;21.85;;
55065;SDS011;40964;42.114;24.220;2022-12-15T00:24:12;45.38;;;18.88;;
55065;SDS011;40964;42.114;24.220;2022-12-15T00:29:41;47.38;;;18.85;;
55065;SDS011;40964;42.114;24.220;2022-12-15T00:35:09;40.72;;;16.77;;
55065;SDS011;40964;42.114;24.220;2022-12-15T00:37:53;51.20;;;20.17;;
55065;SDS011;40964;42.114;24.220;2022-12-15T00:40:37;51.70;;;20.08;;
55065;SDS011;40964;42.114;24.220;2022-12-15T00:43:03;54.42;;;20.77;;
55065;SDS011;40964;42.114;24.220;2022-12-15T00:45:28;51.92;;;21.48;;
55065;SDS011;40964;42.114;24.220;2022-12-15T00:48:17;54.45;;;20.80;;
55065;SDS011;40964;42.114;24.220;2022-12-15T00:50:43;45.22;;;19.52;;
55065;SDS011;40964;42.114;24.220;2022-12-15T00:53:21;50.60;;;20.30;;
55065;SDS011;40964;42.114;24.220;2022-12-15T00:56:06;77.15;;;30.55;;
55065;SDS011;40964;42.114;24.220;2022-12-15T00:58:51;58.72;;;22.38;;
55065;SDS011;40964;42.114;24.220;2022-12-15T01:01:35;50.40;;;19.55;;
55065;SDS011;40964;42.114;24.220;2022-12-15T01:04:20;50.38;;;22.52;;
55065;SDS011;40964;42.114;24.220;2022-12-15T01:07:04;57.25;;;20.65;;
55065;SDS011;40964;42.114;24.220;2022-12-15T01:09:48;53.88;;;21.58;;
55065;SDS011;40964;42.114;24.220;2022-12-15T01:12:33;61.03;;;24.10;;
55065;SDS011;40964;42.114;24.220;2022-12-15T01:15:17;80.63;;;32.70;;
55065;SDS011;40964;42.114;24.220;2022-12-15T01:18:01;54.17;;;23.17;;
55065;SDS011;40964;42.114;24.220;2022-12-15T01:20:53;62.65;;;24.15;;
55065;SDS011;40964;42.114;24.220;2022-12-15T01:23:20;62.30;;;22.35;;
55065;SDS011;40964;42.114;24.220;2022-12-15T01:25:45;65.18;;;24.60;;
55065;SDS011;40964;42.114;24.220;2022-12-15T01:28:11;59.33;;;24.98;;
55065;SDS011;40964;42.114;24.220;2022-12-15T01:30:36;57.00;;;22.65;;
55065;SDS011;40964;42.114;24.220;2022-12-15T01:33:02;53.60;;;20.77;;
55065;SDS011;40964;42.114;24.220;2022-12-15T01:35:28;49.15;;;22.73;;
55065;SDS011;40964;42.114;24.220;2022-12-15T01:37:53;52.90;;;21.88;;
55065;SDS011;40964;42.114;24.220;2022-12-15T01:40:19;46.88;;;20.25;;
55065;SDS011;40964;42.114;24.220;2022-12-15T01:43:08;46.10;;;20.67;;
55065;SDS011;40964;42.114;24.220;2022-12-15T01:45:47;52.90;;;22.30;;
55065;SDS011;40964;42.114;24.220;2022-12-15T01:48:14;55.08;;;22.35;;
55065;SDS011;40964;42.114;24.220;2022-12-15T01:50:46;48.28;;;19.70;;
55065;SDS011;40964;42.114;24.220;2022-12-15T01:53:27;50.67;;;20.70;;
55065;SDS011;40964;42.114;24.220;2022-12-15T01:55:57;40.75;;;16.52;;
55065;SDS011;40964;42.114;24.220;2022-12-15T01:58:23;46.97;;;19.00;;
55065;SDS011;40964;42.114;24.220;2022-12-15T02:00:50;47.17;;;18.73;;
55065;SDS011;40964;42.114;24.220;2022-12-15T02:03:15;45.85;;;18.88;;
55065;SDS011;40964;42.114;24.220;2022-12-15T02:05:42;43.78;;;18.17;;
55065;SDS011;40964;42.114;24.220;2022-12-15T02:08:08;40.03;;;17.00;;
55065;SDS011;40964;42.114;24.220;2022-12-15T02:16:24;46.50;;;18.65;;
55065;SDS011;40964;42.114;24.220;2022-12-15T02:27:57;42.28;;;17.27;;
55065;SDS011;40964;42.114;24.220;2022-12-15T02:30:37;39.08;;;16.25;;
55065;SDS011;40964;42.114;24.220;2022-12-15T02:33:51;36.47;;;17.08;;
55065;SDS011;40964;42.114;24.220;2022-12-15T02:36:26;38.08;;;16.65;;
55065;SDS011;40964;42.114;24.220;2022-12-15T02:38:57;38.50;;;16.50;;
55065;SDS011;40964;42.114;24.220;2022-12-15T02:41:33;39.95;;;16.77;;
55065;SDS011;40964;42.114;24.220;2022-12-15T02:44:26;41.47;;;17.13;;
55065;SDS011;40964;42.114;24.220;2022-12-15T02:49:39;39.47;;;14.77;;
55065;SDS011;40964;42.114;24.220;2022-12-15T02:58:18;40.70;;;15.52;;
55065;SDS011;40964;42.114;24.220;2022-12-15T03:00:58;32.75;;;12.52;;
55065;SDS011;40964;42.114;24.220;2022-12-15T03:03:28;33.72;;;13.15;;
55065;SDS011;40964;42.114;24.220;2022-12-15T03:05:56;35.97;;;14.82;;
55065;SDS011;40964;42.114;24.220;2022-12-15T03:08:22;33.45;;;13.43;;
55065;SDS011;40964;42.114;24.220;2022-12-15T03:10:51;32.53;;;13.43;;
55065;SDS011;40964;42.114;24.220;2022-12-15T03:13:18;30.10;;;12.35;;
55065;SDS011;40964;42.114;24.220;2022-12-15T03:15:44;30.00;;;13.82;;
55065;SDS011;40964;42.114;24.220;2022-12-15T03:18:10;33.65;;;13.43;;
55065;SDS011;40964;42.114;24.220;2022-12-15T03:20:35;31.92;;;13.05;;
55065;SDS011;40964;42.114;24.220;2022-12-15T03:23:01;29.55;;;11.80;;
55065;SDS011;40964;42.114;24.220;2022-12-15T03:25:26;26.15;;;11.75;;
55065;SDS011;40964;42.114;24.220;2022-12-15T03:27:52;27.55;;;11.80;;
55065;SDS011;40964;42.114;24.220;2022-12-15T03:30:18;28.98;;;11.18;;
55065;SDS011;40964;42.114;24.220;2022-12-15T03:32:43;28.08;;;12.25;;
55065;SDS011;40964;42.114;24.220;2022-12-15T03:35:09;23.75;;;11.38;;
55065;SDS011;40964;42.114;24.220;2022-12-15T03:37:36;28.17;;;11.27;;
55065;SDS011;40964;42.114;24.220;2022-12-15T03:40:02;27.17;;;11.52;;
55065;SDS011;40964;42.114;24.220;2022-12-15T03:42:28;25.00;;;10.68;;
55065;SDS011;40964;42.114;24.220;2022-12-15T03:45:12;31.77;;;11.77;;
55065;SDS011;40964;42.114;24.220;2022-12-15T03:47:41;28.33;;;12.30;;
55065;SDS011;40964;42.114;24.220;2022-12-15T03:50:07;35.72;;;14.38;;
55065;SDS011;40964;42.114;24.220;2022-12-15T03:52:33;34.80;;;13.15;;
55065;SDS011;40964;42.114;24.220;2022-12-15T03:55:00;26.55;;;12.02;;
55065;SDS011;40964;42.114;24.220;2022-12-15T03:57:26;34.47;;;13.88;;
55065;SDS011;40964;42.114;24.220;2022-12-15T03:59:51;28.25;;;12.25;;
55065;SDS011;40964;42.114;24.220;2022-12-15T04:02:16;31.42;;;12.82;;
55065;SDS011;40964;42.114;24.220;2022-12-15T04:04:42;28.80;;;12.13;;
55065;SDS011;40964;42.114;24.220;2022-12-15T04:07:07;29.17;;;11.43;;
55065;SDS011;40964;42.114;24.220;2022-12-15T04:09:33;33.70;;;13.75;;
55065;SDS011;40964;42.114;24.220;2022-12-15T04:11:59;34.47;;;12.07;;
55065;SDS011;40964;42.114;24.220;2022-12-15T04:14:28;33.28;;;12.50;;
55065;SDS011;40964;42.114;24.220;2022-12-15T04:16:54;33.10;;;11.35;;
55065;SDS011;40964;42.114;24.220;2022-12-15T04:19:20;30.48;;;13.27;;
55065;SDS011;40964;42.114;24.220;2022-12-15T04:22:04;35.30;;;13.48;;
55065;SDS011;40964;42.114;24.220;2022-12-15T04:24:29;31.60;;;13.00;;
55065;SDS011;40964;42.114;24.220;2022-12-15T04:27:13;39.58;;;14.43;;
55065;SDS011;40964;42.114;24.220;2022-12-15T04:29:57;40.90;;;13.15;;
55065;SDS011;40964;42.114;24.220;2022-12-15T04:32:41;37.63;;;15.13;;
55065;SDS011;40964;42.114;24.220;2022-12-15T04:35:25;43.72;;;14.90;;
55065;SDS011;40964;42.114;24.220;2022-12-15T04:38:10;55.88;;;13.73;;
55065;SDS011;40964;42.114;24.220;2022-12-15T04:40:53;32.53;;;12.85;;
55065;SDS011;40964;42.114;24.220;2022-12-15T04:43:38;41.97;;;15.48;;
55065;SDS011;40964;42.114;24.220;2022-12-15T04:46:22;32.10;;;12.27;;
55065;SDS011;40964;42.114;24.220;2022-12-15T04:49:06;38.97;;;15.05;;
55065;SDS011;40964;42.114;24.220;2022-12-15T04:51:50;41.35;;;15.40;;
55065;SDS011;40964;42.114;24.220;2022-12-15T04:54:34;85.53;;;27.17;;
55065;SDS011;40964;42.114;24.220;2022-12-15T04:57:18;45.45;;;16.95;;
55065;SDS011;40964;42.114;24.220;2022-12-15T05:00:03;42.60;;;15.38;;
55065;SDS011;40964;42.114;24.220;2022-12-15T05:02:48;43.33;;;13.20;;
55065;SDS011;40964;42.114;24.220;2022-12-15T05:05:31;35.22;;;12.23;;
55065;SDS011;40964;42.114;24.220;2022-12-15T05:08:15;33.38;;;13.23;;
55065;SDS011;40964;42.114;24.220;2022-12-15T05:10:59;35.25;;;11.80;;
55065;SDS011;40964;42.114;24.220;2022-12-15T05:13:43;30.63;;;12.02;;
55065;SDS011;40964;42.114;24.220;2022-12-15T05:16:27;32.33;;;11.90;;
55065;SDS011;40964;42.114;24.220;2022-12-15T05:19:11;29.08;;;11.77;;
55065;SDS011;40964;42.114;24.220;2022-12-15T05:21:56;26.92;;;11.63;;
55065;SDS011;40964;42.114;24.220;2022-12-15T05:24:40;24.88;;;10.50;;
55065;SDS011;40964;42.114;24.220;2022-12-15T05:27:23;27.03;;;11.63;;
55065;SDS011;40964;42.114;24.220;2022-12-15T05:30:07;30.02;;;11.07;;
55065;SDS011;40964;42.114;24.220;2022-12-15T05:32:51;29.88;;;10.32;;
55065;SDS011;40964;42.114;24.220;2022-12-15T05:35:17;41.28;;;11.38;;
55065;SDS011;40964;42.114;24.220;2022-12-15T05:37:42;37.00;;;11.80;;
55065;SDS011;40964;42.114;24.220;2022-12-15T05:40:08;35.30;;;12.35;;
55065;SDS011;40964;42.114;24.220;2022-12-15T05:42:34;38.47;;;12.60;;
55065;SDS011;40964;42.114;24.220;2022-12-15T05:44:59;34.45;;;12.73;;
55065;SDS011;40964;42.114;24.220;2022-12-15T05:47:25;43.67;;;12.55;;
55065;SDS011;40964;42.114;24.220;2022-12-15T05:49:50;37.33;;;14.90;;
55065;SDS011;40964;42.114;24.220;2022-12-15T05:52:16;37.58;;;14.18;;
55065;SDS011;40964;42.114;24.220;2022-12-15T05:54:41;42.53;;;14.23;;
55065;SDS011;40964;42.114;24.220;2022-12-15T05:57:07;44.08;;;17.33;;
55065;SDS011;40964;42.114;24.220;2022-12-15T05:59:33;51.67;;;19.60;;
55065;SDS011;40964;42.114;24.220;2022-12-15T06:01:58;34.88;;;14.02;;
55065;SDS011;40964;42.114;24.220;2022-12-15T06:04:24;40.53;;;15.98;;
55065;SDS011;40964;42.114;24.220;2022-12-15T06:06:49;53.83;;;18.85;;
55065;SDS011;40964;42.114;24.220;2022-12-15T06:09:14;57.88;;;22.15;;
55065;SDS011;40964;42.114;24.220;2022-12-15T06:11:40;46.17;;;17.42;;
55065;SDS011;40964;42.114;24.220;2022-12-15T06:14:05;32.80;;;10.85;;
55065;SDS011;40964;42.114;24.220;2022-12-15T06:16:31;29.02;;;10.75;;
55065;SDS011;40964;42.114;24.220;2022-12-15T06:18:58;29.90;;;11.13;;
55065;SDS011;40964;42.114;24.220;2022-12-15T06:21:26;42.65;;;14.80;;
55065;SDS011;40964;42.114;24.220;2022-12-15T06:23:54;39.40;;;14.13;;
55065;SDS011;40964;42.114;24.220;2022-12-15T06:26:24;48.67;;;19.85;;
55065;SDS011;40964;42.114;24.220;2022-12-15T06:28:50;49.03;;;19.95;;
55065;SDS011;40964;42.114;24.220;2022-12-15T06:31:18;40.42;;;15.30;;
55065;SDS011;40964;42.114;24.220;2022-12-15T06:33:47;39.58;;;16.55;;
55065;SDS011;40964;42.114;24.220;2022-12-15T06:36:14;36.00;;;15.93;;
55065;SDS011;40964;42.114;24.220;2022-12-15T06:38:40;32.53;;;14.88;;
55065;SDS011;40964;42.114;24.220;2022-12-15T06:41:07;24.92;;;10.02;;
55065;SDS011;40964;42.114;24.220;2022-12-15T06:43:34;27.67;;;9.85;;
55065;SDS011;40964;42.114;24.220;2022-12-15T06:45:59;22.38;;;9.05;;
55065;SDS011;40964;42.114;24.220;2022-12-15T06:48:26;25.35;;;10.63;;
55065;SDS011;40964;42.114;24.220;2022-12-15T06:50:51;21.70;;;10.65;;
55065;SDS011;40964;42.114;24.220;2022-12-15T06:53:18;23.98;;;11.23;;
55065;SDS011;40964;42.114;24.220;2022-12-15T06:55:45;29.48;;;11.23;;
55065;SDS011;40964;42.114;24.220;2022-12-15T06:58:11;24.20;;;11.57;;
55065;SDS011;40964;42.114;24.220;2022-12-15T07:00:38;27.20;;;11.95;;
55065;SDS011;40964;42.114;24.220;2022-12-15T07:03:14;32.90;;;13.15;;
55065;SDS011;40964;42.114;24.220;2022-12-15T07:05:42;30.30;;;13.05;;
55065;SDS011;40964;42.114;24.220;2022-12-15T07:08:12;25.02;;;12.05;;
55065;SDS011;40964;42.114;24.220;2022-12-15T07:10:39;28.33;;;12.23;;
55065;SDS011;40964;42.114;24.220;2022-12-15T07:13:08;29.90;;;11.63;;
55065;SDS011;40964;42.114;24.220;2022-12-15T07:15:35;33.30;;;12.73;;
55065;SDS011;40964;42.114;24.220;2022-12-15T07:18:01;26.67;;;11.02;;
55065;SDS011;40964;42.114;24.220;2022-12-15T07:20:26;28.27;;;12.43;;
55065;SDS011;40964;42.114;24.220;2022-12-15T07:22:53;26.65;;;10.02;;
55065;SDS011;40964;42.114;24.220;2022-12-15T07:25:19;21.73;;;9.25;;
55065;SDS011;40964;42.114;24.220;2022-12-15T07:27:45;23.85;;;10.77;;
55065;SDS011;40964;42.114;24.220;2022-12-15T07:30:11;32.38;;;13.82;;
55065;SDS011;40964;42.114;24.220;2022-12-15T07:32:37;27.98;;;13.05;;
55065;SDS011;40964;42.114;24.220;2022-12-15T07:35:03;30.98;;;11.82;;
55065;SDS011;40964;42.114;24.220;2022-12-15T07:37:30;29.60;;;13.43;;
55065;SDS011;40964;42.114;24.220;2022-12-15T07:39:55;41.40;;;16.80;;
55065;SDS011;40964;42.114;24.220;2022-12-15T07:42:21;35.30;;;15.68;;
55065;SDS011;40964;42.114;24.220;2022-12-15T07:44:47;26.27;;;10.88;;
55065;SDS011;40964;42.114;24.220;2022-12-15T07:47:12;23.02;;;9.80;;
55065;SDS011;40964;42.114;24.220;2022-12-15T07:49:37;21.65;;;9.95;;
55065;SDS011;40964;42.114;24.220;2022-12-15T07:52:03;29.85;;;12.50;;
55065;SDS011;40964;42.114;24.220;2022-12-15T07:54:29;31.42;;;12.10;;
55065;SDS011;40964;42.114;24.220;2022-12-15T07:56:54;28.77;;;11.55;;
55065;SDS011;40964;42.114;24.220;2022-12-15T07:59:20;28.80;;;12.70;;
55065;SDS011;40964;42.114;24.220;2022-12-15T08:01:46;24.45;;;8.63;;
55065;SDS011;40964;42.114;24.220;2022-12-15T08:04:12;25.98;;;10.18;;
55065;SDS011;40964;42.114;24.220;2022-12-15T08:06:38;18.10;;;7.50;;
55065;SDS011;40964;42.114;24.220;2022-12-15T08:09:03;12.43;;;7.13;;
55065;SDS011;40964;42.114;24.220;2022-12-15T08:11:31;19.52;;;8.38;;
55065;SDS011;40964;42.114;24.220;2022-12-15T08:13:59;19.65;;;7.22;;
55065;SDS011;40964;42.114;24.220;2022-12-15T08:16:25;16.40;;;7.07;;
55065;SDS011;40964;42.114;24.220;2022-12-15T08:18:51;17.88;;;6.72;;
55065;SDS011;40964;42.114;24.220;2022-12-15T08:21:16;17.70;;;7.53;;
55065;SDS011;40964;42.114;24.220;2022-12-15T08:23:42;19.30;;;7.65;;
55065;SDS011;40964;42.114;24.220;2022-12-15T08:26:09;21.23;;;9.10;;
55065;SDS011;40964;42.114;24.220;2022-12-15T08:28:37;22.88;;;9.98;;
55065;SDS011;40964;42.114;24.220;2022-12-15T08:31:07;18.70;;;8.73;;
55065;SDS011;40964;42.114;24.220;2022-12-15T08:33:36;17.92;;;7.75;;
55065;SDS011;40964;42.114;24.220;2022-12-15T08:36:03;25.02;;;9.43;;
55065;SDS011;40964;42.114;24.220;2022-12-15T08:38:31;20.33;;;9.02;;
55065;SDS011;40964;42.114;24.220;2022-12-15T08:40:59;20.35;;;8.32;;
55065;SDS011;40964;42.114;24.220;2022-12-15T08:43:31;20.63;;;8.68;;
55065;SDS011;40964;42.114;24.220;2022-12-15T08:45:58;14.70;;;6.20;;
55065;SDS011;40964;42.114;24.220;2022-12-15T08:48:28;9.57;;;5.05;;
55065;SDS011;40964;42.114;24.220;2022-12-15T08:50:54;14.98;;;6.88;;
55065;SDS011;40964;42.114;24.220;2022-12-15T08:53:20;13.73;;;6.38;;
55065;SDS011;40964;42.114;24.220;2022-12-15T08:55:45;15.70;;;7.45;;
55065;SDS011;40964;42.114;24.220;2022-12-15T08:58:11;18.15;;;7.40;;
55065;SDS011;40964;42.114;24.220;2022-12-15T09:00:36;16.77;;;7.57;;
55065;SDS011;40964;42.114;24.220;2022-12-15T09:03:02;18.05;;;7.10;;
55065;SDS011;40964;42.114;24.220;2022-12-15T09:05:28;13.95;;;7.20;;
55065;SDS011;40964;42.114;24.220;2022-12-15T09:07:54;13.95;;;6.15;;
55065;SDS011;40964;42.114;24.220;2022-12-15T09:10:20;16.50;;;7.93;;
55065;SDS011;40964;42.114;24.220;2022-12-15T09:12:46;15.45;;;6.75;;
55065;SDS011;40964;42.114;24.220;2022-12-15T09:15:12;17.70;;;7.10;;
55065;SDS011;40964;42.114;24.220;2022-12-15T09:17:37;13.85;;;5.85;;
55065;SDS011;40964;42.114;24.220;2022-12-15T09:20:03;16.27;;;7.10;;
55065;SDS011;40964;42.114;24.220;2022-12-15T09:22:30;16.08;;;6.30;;
55065;SDS011;40964;42.114;24.220;2022-12-15T09:24:55;11.32;;;5.82;;
55065;SDS011;40964;42.114;24.220;2022-12-15T09:27:21;9.43;;;5.22;;
55065;SDS011;40964;42.114;24.220;2022-12-15T09:29:46;12.75;;;5.75;;
55065;SDS011;40964;42.114;24.220;2022-12-15T09:32:12;14.85;;;7.10;;
55065;SDS011;40964;42.114;24.220;2022-12-15T09:34:38;11.73;;;5.82;;
55065;SDS011;40964;42.114;24.220;2022-12-15T09:37:04;10.43;;;5.65;;
55065;SDS011;40964;42.114;24.220;2022-12-15T09:39:29;10.15;;;5.32;;
55065;SDS011;40964;42.114;24.220;2022-12-15T09:41:58;16.63;;;6.22;;
55065;SDS011;40964;42.114;24.220;2022-12-15T09:44:25;16.25;;;6.70;;
55065;SDS011;40964;42.114;24.220;2022-12-15T09:49:54;15.15;;;6.82;;
55065;SDS011;40964;42.114;24.220;2022-12-15T09:54:45;11.32;;;6.10;;
55065;SDS011;40964;42.114;24.220;2022-12-15T10:08:20;15.95;;;7.20;;
55065;SDS011;40964;42.114;24.220;2022-12-15T10:13:20;24.48;;;11.00;;
55065;SDS011;40964;42.114;24.220;2022-12-15T10:15:54;16.42;;;7.28;;
55065;SDS011;40964;42.114;24.220;2022-12-15T10:18:24;11.45;;;5.82;;
55065;SDS011;40964;42.114;24.220;2022-12-15T10:21:03;14.07;;;6.72;;
55065;SDS011;40964;42.114;24.220;2022-12-15T10:23:30;14.05;;;6.97;;
55065;SDS011;40964;42.114;24.220;2022-12-15T10:26:19;15.02;;;6.80;;
55065;SDS011;40964;42.114;24.220;2022-12-15T10:31:34;14.13;;;7.07;;
55065;SDS011;40964;42.114;24.220;2022-12-15T10:34:40;13.80;;;6.78;;
55065;SDS011;40964;42.114;24.220;2022-12-15T10:37:04;14.15;;;6.07;;
55065;SDS011;40964;42.114;24.220;2022-12-15T10:39:37;16.55;;;8.13;;
55065;SDS011;40964;42.114;24.220;2022-12-15T10:44:38;17.92;;;8.13;;
55065;SDS011;40964;42.114;24.220;2022-12-15T10:47:26;17.17;;;8.95;;
55065;SDS011;40964;42.114;24.220;2022-12-15T10:52:41;14.13;;;6.97;;
55065;SDS011;40964;42.114;24.220;2022-12-15T10:55:27;12.88;;;6.55;;
55065;SDS011;40964;42.114;24.220;2022-12-15T10:58:06;12.63;;;5.95;;
55065;SDS011;40964;42.114;24.220;2022-12-15T11:00:42;10.57;;;5.68;;
55065;SDS011;40964;42.114;24.220;2022-12-15T11:03:20;10.70;;;4.80;;
55065;SDS011;40964;42.114;24.220;2022-12-15T11:05:51;13.48;;;5.85;;
55065;SDS011;40964;42.114;24.220;2022-12-15T11:08:19;11.25;;;5.82;;
55065;SDS011;40964;42.114;24.220;2022-12-15T11:10:54;10.40;;;4.57;;
55065;SDS011;40964;42.114;24.220;2022-12-15T11:13:39;8.40;;;4.57;;
55065;SDS011;40964;42.114;24.220;2022-12-15T11:16:24;10.77;;;5.28;;
55065;SDS011;40964;42.114;24.220;2022-12-15T11:18:50;11.88;;;5.15;;
55065;SDS011;40964;42.114;24.220;2022-12-15T11:21:38;11.10;;;5.55;;
55065;SDS011;40964;42.114;24.220;2022-12-15T11:24:21;15.52;;;7.38;;
55065;SDS011;40964;42.114;24.220;2022-12-15T11:32:45;11.30;;;5.72;;
55065;SDS011;40964;42.114;24.220;2022-12-15T11:36:03;10.07;;;4.93;;
55065;SDS011;40964;42.114;24.220;2022-12-15T11:38:43;8.52;;;5.32;;
55065;SDS011;40964;42.114;24.220;2022-12-15T11:41:25;8.10;;;4.47;;
55065;SDS011;40964;42.114;24.220;2022-12-15T11:46:46;7.63;;;4.50;;
55065;SDS011;40964;42.114;24.220;2022-12-15T11:49:29;9.10;;;4.78;;
55065;SDS011;40964;42.114;24.220;2022-12-15T11:55:11;8.38;;;3.92;;
55065;SDS011;40964;42.114;24.220;2022-12-15T12:00:19;9.02;;;5.05;;
55065;SDS011;40964;42.114;24.220;2022-12-15T12:11:15;10.65;;;4.38;;
55065;SDS011;40964;42.114;24.220;2022-12-15T12:19:10;8.80;;;5.00;;
55065;SDS011;40964;42.114;24.220;2022-12-15T12:21:45;11.95;;;7.07;;
55065;SDS011;40964;42.114;24.220;2022-12-15T12:26:55;10.57;;;5.40;;
55065;SDS011;40964;42.114;24.220;2022-12-15T12:29:29;10.30;;;5.40;;
55065;SDS011;40964;42.114;24.220;2022-12-15T12:39:51;9.45;;;5.90;;
55065;SDS011;40964;42.114;24.220;2022-12-15T12:42:24;10.65;;;5.47;;
55065;SDS011;40964;42.114;24.220;2022-12-15T12:45:10;11.40;;;6.55;;
55065;SDS011;40964;42.114;24.220;2022-12-15T12:47:37;9.60;;;4.63;;
55065;SDS011;40964;42.114;24.220;2022-12-15T12:50:16;10.88;;;6.25;;
55065;SDS011;40964;42.114;24.220;2022-12-15T12:52:49;9.80;;;5.82;;
55065;SDS011;40964;42.114;24.220;2022-12-15T12:57:51;12.93;;;6.25;;
55065;SDS011;40964;42.114;24.220;2022-12-15T13:05:40;11.93;;;7.05;;
55065;SDS011;40964;42.114;24.220;2022-12-15T13:10:36;8.77;;;5.13;;
55065;SDS011;40964;42.114;24.220;2022-12-15T13:15:40;11.15;;;6.28;;
55065;SDS011;40964;42.114;24.220;2022-12-15T13:18:12;9.07;;;4.60;;
55065;SDS011;40964;42.114;24.220;2022-12-15T13:20:42;8.82;;;4.43;;
55065;SDS011;40964;42.114;24.220;2022-12-15T13:23:16;9.30;;;4.47;;
55065;SDS011;40964;42.114;24.220;2022-12-15T13:33:44;14.27;;;8.00;;
55065;SDS011;40964;42.114;24.220;2022-12-15T13:46:58;18.33;;;9.15;;
55065;SDS011;40964;42.114;24.220;2022-12-15T13:49:39;12.75;;;6.93;;
55065;SDS011;40964;42.114;24.220;2022-12-15T13:52:12;14.48;;;6.68;;
55065;SDS011;40964;42.114;24.220;2022-12-15T13:54:47;14.27;;;7.78;;
55065;SDS011;40964;42.114;24.220;2022-12-15T13:57:18;16.17;;;8.90;;
55065;SDS011;40964;42.114;24.220;2022-12-15T13:59:50;17.27;;;8.82;;
55065;SDS011;40964;42.114;24.220;2022-12-15T14:07:39;12.55;;;6.68;;
55065;SDS011;40964;42.114;24.220;2022-12-15T14:13:15;9.68;;;5.30;;
55065;SDS011;40964;42.114;24.220;2022-12-15T14:15:50;13.70;;;5.72;;
55065;SDS011;40964;42.114;24.220;2022-12-15T14:18:25;16.40;;;8.93;;
55065;SDS011;40964;42.114;24.220;2022-12-15T14:20:52;11.65;;;6.78;;
55065;SDS011;40964;42.114;24.220;2022-12-15T14:23:22;11.18;;;5.65;;
55065;SDS011;40964;42.114;24.220;2022-12-15T14:26:03;18.55;;;9.70;;
55065;SDS011;40964;42.114;24.220;2022-12-15T14:28:32;20.23;;;10.20;;
55065;SDS011;40964;42.114;24.220;2022-12-15T14:31:41;27.42;;;13.25;;
55065;SDS011;40964;42.114;24.220;2022-12-15T14:33:49;18.45;;;9.48;;
55065;SDS011;40964;42.114;24.220;2022-12-15T14:36:22;11.57;;;5.90;;
55065;SDS011;40964;42.114;24.220;2022-12-15T14:38:49;9.23;;;5.25;;
55065;SDS011;40964;42.114;24.220;2022-12-15T14:41:19;9.55;;;5.15;;
55065;SDS011;40964;42.114;24.220;2022-12-15T14:43:48;13.27;;;6.25;;
55065;SDS011;40964;42.114;24.220;2022-12-15T14:46:18;21.23;;;10.57;;
55065;SDS011;40964;42.114;24.220;2022-12-15T14:48:57;33.72;;;15.98;;
55065;SDS011;40964;42.114;24.220;2022-12-15T14:51:24;21.58;;;9.57;;
55065;SDS011;40964;42.114;24.220;2022-12-15T14:53:52;12.30;;;7.07;;
55065;SDS011;40964;42.114;24.220;2022-12-15T14:58:44;16.05;;;8.18;;
55065;SDS011;40964;42.114;24.220;2022-12-15T15:03:57;9.48;;;5.95;;
55065;SDS011;40964;42.114;24.220;2022-12-15T15:06:35;13.57;;;5.65;;
55065;SDS011;40964;42.114;24.220;2022-12-15T15:17:28;10.38;;;5.97;;
55065;SDS011;40964;42.114;24.220;2022-12-15T15:20:00;10.18;;;5.55;;
55065;SDS011;40964;42.114;24.220;2022-12-15T15:22:39;10.73;;;5.95;;
55065;SDS011;40964;42.114;24.220;2022-12-15T15:33:07;17.83;;;8.60;;
55065;SDS011;40964;42.114;24.220;2022-12-15T15:35:33;26.15;;;10.70;;
55065;SDS011;40964;42.114;24.220;2022-12-15T15:41:30;39.05;;;15.27;;
55065;SDS011;40964;42.114;24.220;2022-12-15T15:43:40;28.48;;;11.38;;
55065;SDS011;40964;42.114;24.220;2022-12-15T15:46:07;21.55;;;10.38;;
55065;SDS011;40964;42.114;24.220;2022-12-15T15:48:37;23.38;;;12.32;;
55065;SDS011;40964;42.114;24.220;2022-12-15T15:51:11;16.67;;;8.25;;
55065;SDS011;40964;42.114;24.220;2022-12-15T15:53:38;15.20;;;7.57;;
55065;SDS011;40964;42.114;24.220;2022-12-15T15:56:04;14.88;;;7.18;;
55065;SDS011;40964;42.114;24.220;2022-12-15T15:58:33;15.23;;;8.40;;
55065;SDS011;40964;42.114;24.220;2022-12-15T16:00:59;22.48;;;10.35;;
55065;SDS011;40964;42.114;24.220;2022-12-15T16:03:24;30.38;;;11.75;;
55065;SDS011;40964;42.114;24.220;2022-12-15T16:05:50;27.27;;;11.68;;
55065;SDS011;40964;42.114;24.220;2022-12-15T16:08:18;27.77;;;12.38;;
55065;SDS011;40964;42.114;24.220;2022-12-15T16:10:48;29.95;;;12.95;;
55065;SDS011;40964;42.114;24.220;2022-12-15T16:13:15;29.65;;;13.38;;
55065;SDS011;40964;42.114;24.220;2022-12-15T16:15:42;31.85;;;13.25;;
55065;SDS011;40964;42.114;24.220;2022-12-15T16:18:08;29.52;;;12.68;;
55065;SDS011;40964;42.114;24.220;2022-12-15T16:20:35;34.80;;;13.38;;
55065;SDS011;40964;42.114;24.220;2022-12-15T16:23:12;43.40;;;16.67;;
55065;SDS011;40964;42.114;24.220;2022-12-15T16:28:11;24.90;;;12.27;;
55065;SDS011;40964;42.114;24.220;2022-12-15T16:30:38;25.83;;;12.32;;
55065;SDS011;40964;42.114;24.220;2022-12-15T16:33:04;37.70;;;16.33;;
55065;SDS011;40964;42.114;24.220;2022-12-15T16:35:30;31.83;;;13.70;;
55065;SDS011;40964;42.114;24.220;2022-12-15T16:37:56;27.95;;;12.98;;
55065;SDS011;40964;42.114;24.220;2022-12-15T16:40:22;42.67;;;15.88;;
55065;SDS011;40964;42.114;24.220;2022-12-15T16:42:51;38.42;;;15.23;;
55065;SDS011;40964;42.114;24.220;2022-12-15T16:45:18;27.90;;;11.43;;
55065;SDS011;40964;42.114;24.220;2022-12-15T16:47:45;29.48;;;11.73;;
55065;SDS011;40964;42.114;24.220;2022-12-15T16:50:11;33.30;;;12.98;;
55065;SDS011;40964;42.114;24.220;2022-12-15T16:52:39;31.10;;;13.13;;
55065;SDS011;40964;42.114;24.220;2022-12-15T16:55:07;26.13;;;10.95;;
55065;SDS011;40964;42.114;24.220;2022-12-15T16:58:00;30.35;;;12.30;;
55065;SDS011;40964;42.114;24.220;2022-12-15T17:00:29;43.65;;;19.63;;
55065;SDS011;40964;42.114;24.220;2022-12-15T17:02:57;45.65;;;17.38;;
55065;SDS011;40964;42.114;24.220;2022-12-15T17:05:24;41.75;;;17.23;;
55065;SDS011;40964;42.114;24.220;2022-12-15T17:07:54;42.40;;;16.83;;
55065;SDS011;40964;42.114;24.220;2022-12-15T17:10:25;41.90;;;17.23;;
55065;SDS011;40964;42.114;24.220;2022-12-15T17:12:53;42.60;;;18.17;;
55065;SDS011;40964;42.114;24.220;2022-12-15T17:15:24;33.15;;;14.68;;
55065;SDS011;40964;42.114;24.220;2022-12-15T17:17:52;30.17;;;11.30;;
55065;SDS011;40964;42.114;24.220;2022-12-15T17:20:22;28.95;;;13.02;;
55065;SDS011;40964;42.114;24.220;2022-12-15T17:23:35;31.02;;;12.70;;
55065;SDS011;40964;42.114;24.220;2022-12-15T17:25:45;24.67;;;10.88;;
55065;SDS011;40964;42.114;24.220;2022-12-15T17:28:14;23.05;;;10.35;;